sensor_id;sensor_type;location;lat;lon;timestamp;temperature;humidity
210;DHT22;90;48.810;9.120;2023-06-14T00:00:00;17.70;50.50
210;DHT22;90;48.810;9.120;2023-06-14T00:02:29;17.60;51.20
210;DHT22;90;48.810;9.120;2023-06-14T00:04:57;17.60;51.30
210;DHT22;90;48.810;9.120;2023-06-14T00:07:34;17.60;51.20
210;DHT22;90;48.810;9.120;2023-06-14T00:10:02;17.50;51.00
210;DHT22;90;48.810;9.120;2023-06-14T00:12:29;17.70;50.70
210;DHT22;90;48.810;9.120;2023-06-14T00:14:57;17.50;50.90
210;DHT22;90;48.810;9.120;2023-06-14T00:17:23;17.30;51.60
210;DHT22;90;48.810;9.120;2023-06-14T00:19:57;17.30;51.70
210;DHT22;90;48.810;9.120;2023-06-14T00:22:23;17.40;51.40
210;DHT22;90;48.810;9.120;2023-06-14T00:24:50;17.50;51.10
210;DHT22;90;48.810;9.120;2023-06-14T00:27:17;17.50;50.90
210;DHT22;90;48.810;9.120;2023-06-14T00:29:44;17.60;50.30
210;DHT22;90;48.810;9.120;2023-06-14T00:32:11;17.60;51.50
210;DHT22;90;48.810;9.120;2023-06-14T00:34:37;17.60;51.40
210;DHT22;90;48.810;9.120;2023-06-14T00:37:05;17.60;52.10
210;DHT22;90;48.810;9.120;2023-06-14T00:39:32;17.50;52.60
210;DHT22;90;48.810;9.120;2023-06-14T00:41:59;17.50;52.60
210;DHT22;90;48.810;9.120;2023-06-14T00:44:26;17.30;52.60
210;DHT22;90;48.810;9.120;2023-06-14T00:46:52;17.10;52.90
210;DHT22;90;48.810;9.120;2023-06-14T00:49:19;17.00;52.70
210;DHT22;90;48.810;9.120;2023-06-14T00:51:46;16.90;53.00
210;DHT22;90;48.810;9.120;2023-06-14T00:54:14;16.70;53.30
210;DHT22;90;48.810;9.120;2023-06-14T00:56:44;16.70;53.30
210;DHT22;90;48.810;9.120;2023-06-14T00:59:11;16.60;53.30
210;DHT22;90;48.810;9.120;2023-06-14T01:01:37;16.60;54.10
210;DHT22;90;48.810;9.120;2023-06-14T01:04:04;16.50;54.40
210;DHT22;90;48.810;9.120;2023-06-14T01:06:35;16.40;54.90
210;DHT22;90;48.810;9.120;2023-06-14T01:09:12;16.50;54.60
210;DHT22;90;48.810;9.120;2023-06-14T01:11:50;16.50;54.10
210;DHT22;90;48.810;9.120;2023-06-14T01:14:20;16.40;54.60
210;DHT22;90;48.810;9.120;2023-06-14T01:16:47;16.50;54.10
210;DHT22;90;48.810;9.120;2023-06-14T01:19:18;16.50;54.30
210;DHT22;90;48.810;9.120;2023-06-14T01:21:48;16.50;54.00
210;DHT22;90;48.810;9.120;2023-06-14T01:24:18;16.60;54.00
210;DHT22;90;48.810;9.120;2023-06-14T01:26:51;16.50;54.80
210;DHT22;90;48.810;9.120;2023-06-14T01:32:44;16.50;55.30
210;DHT22;90;48.810;9.120;2023-06-14T01:35:11;16.50;55.30
210;DHT22;90;48.810;9.120;2023-06-14T01:37:38;16.40;54.90
210;DHT22;90;48.810;9.120;2023-06-14T01:40:09;16.30;55.50
210;DHT22;90;48.810;9.120;2023-06-14T01:42:38;16.20;55.80
210;DHT22;90;48.810;9.120;2023-06-14T01:45:06;16.00;55.40
210;DHT22;90;48.810;9.120;2023-06-14T01:47:34;16.00;55.40
210;DHT22;90;48.810;9.120;2023-06-14T01:50:01;16.00;55.30
210;DHT22;90;48.810;9.120;2023-06-14T01:52:28;15.90;55.60
210;DHT22;90;48.810;9.120;2023-06-14T01:54:55;15.90;56.10
210;DHT22;90;48.810;9.120;2023-06-14T01:57:25;15.90;56.10
210;DHT22;90;48.810;9.120;2023-06-14T01:59:54;15.90;55.80
210;DHT22;90;48.810;9.120;2023-06-14T02:02:21;15.80;56.00
210;DHT22;90;48.810;9.120;2023-06-14T02:04:48;15.90;55.40
210;DHT22;90;48.810;9.120;2023-06-14T02:07:15;15.90;55.30
210;DHT22;90;48.810;9.120;2023-06-14T02:09:42;15.90;55.70
210;DHT22;90;48.810;9.120;2023-06-14T02:12:09;15.80;56.10
210;DHT22;90;48.810;9.120;2023-06-14T02:14:37;15.70;56.10
210;DHT22;90;48.810;9.120;2023-06-14T02:17:05;15.80;56.00
210;DHT22;90;48.810;9.120;2023-06-14T02:19:32;15.70;56.10
210;DHT22;90;48.810;9.120;2023-06-14T02:21:59;15.80;55.40
210;DHT22;90;48.810;9.120;2023-06-14T02:24:26;15.90;55.60
210;DHT22;90;48.810;9.120;2023-06-14T02:26:52;16.00;55.50
210;DHT22;90;48.810;9.120;2023-06-14T02:29:19;16.00;56.10
210;DHT22;90;48.810;9.120;2023-06-14T02:31:47;16.00;55.90
210;DHT22;90;48.810;9.120;2023-06-14T02:34:15;15.90;57.00
210;DHT22;90;48.810;9.120;2023-06-14T02:36:43;15.70;57.30
210;DHT22;90;48.810;9.120;2023-06-14T02:39:10;15.50;57.80
210;DHT22;90;48.810;9.120;2023-06-14T02:41:37;15.60;57.30
210;DHT22;90;48.810;9.120;2023-06-14T02:44:04;15.60;57.40
210;DHT22;90;48.810;9.120;2023-06-14T02:46:31;15.40;58.50
210;DHT22;90;48.810;9.120;2023-06-14T02:48:59;15.30;58.10
210;DHT22;90;48.810;9.120;2023-06-14T02:51:26;15.40;58.00
210;DHT22;90;48.810;9.120;2023-06-14T02:53:53;15.30;57.90
210;DHT22;90;48.810;9.120;2023-06-14T02:56:20;15.30;58.60
210;DHT22;90;48.810;9.120;2023-06-14T02:58:48;15.30;58.60
210;DHT22;90;48.810;9.120;2023-06-14T03:01:16;15.20;58.90
210;DHT22;90;48.810;9.120;2023-06-14T03:03:43;15.10;59.40
210;DHT22;90;48.810;9.120;2023-06-14T03:06:11;15.20;59.10
210;DHT22;90;48.810;9.120;2023-06-14T03:08:39;15.20;59.20
210;DHT22;90;48.810;9.120;2023-06-14T03:11:07;15.30;59.20
210;DHT22;90;48.810;9.120;2023-06-14T03:13:34;15.30;59.50
210;DHT22;90;48.810;9.120;2023-06-14T03:16:00;15.40;59.60
210;DHT22;90;48.810;9.120;2023-06-14T03:18:28;15.40;59.20
210;DHT22;90;48.810;9.120;2023-06-14T03:20:55;15.30;59.30
210;DHT22;90;48.810;9.120;2023-06-14T03:23:25;15.10;59.40
210;DHT22;90;48.810;9.120;2023-06-14T03:25:52;15.00;60.00
210;DHT22;90;48.810;9.120;2023-06-14T03:28:19;15.10;59.60
210;DHT22;90;48.810;9.120;2023-06-14T03:30:46;15.20;59.40
210;DHT22;90;48.810;9.120;2023-06-14T03:33:13;15.10;59.40
210;DHT22;90;48.810;9.120;2023-06-14T03:35:41;15.00;60.20
210;DHT22;90;48.810;9.120;2023-06-14T03:38:08;15.00;60.20
210;DHT22;90;48.810;9.120;2023-06-14T03:40:36;15.00;59.80
210;DHT22;90;48.810;9.120;2023-06-14T03:43:03;15.00;60.10
210;DHT22;90;48.810;9.120;2023-06-14T03:45:29;14.90;61.00
210;DHT22;90;48.810;9.120;2023-06-14T03:47:56;15.00;61.20
210;DHT22;90;48.810;9.120;2023-06-14T03:50:27;15.00;61.20
210;DHT22;90;48.810;9.120;2023-06-14T03:52:53;15.00;61.20
210;DHT22;90;48.810;9.120;2023-06-14T03:55:20;14.90;61.20
210;DHT22;90;48.810;9.120;2023-06-14T03:57:52;14.90;61.60
210;DHT22;90;48.810;9.120;2023-06-14T04:00:19;14.90;61.20
210;DHT22;90;48.810;9.120;2023-06-14T04:02:48;15.10;60.40
210;DHT22;90;48.810;9.120;2023-06-14T04:05:15;15.00;60.70
210;DHT22;90;48.810;9.120;2023-06-14T04:07:44;14.90;61.40
210;DHT22;90;48.810;9.120;2023-06-14T04:10:12;14.80;61.90
210;DHT22;90;48.810;9.120;2023-06-14T04:12:39;14.90;62.00
210;DHT22;90;48.810;9.120;2023-06-14T04:15:08;14.90;62.50
210;DHT22;90;48.810;9.120;2023-06-14T04:17:37;15.00;62.60
210;DHT22;90;48.810;9.120;2023-06-14T04:20:06;15.00;62.40
210;DHT22;90;48.810;9.120;2023-06-14T04:22:35;15.00;62.20
210;DHT22;90;48.810;9.120;2023-06-14T04:25:02;15.10;61.80
210;DHT22;90;48.810;9.120;2023-06-14T04:27:31;15.20;61.90
210;DHT22;90;48.810;9.120;2023-06-14T04:30:01;15.30;62.10
210;DHT22;90;48.810;9.120;2023-06-14T04:32:30;15.30;62.30
210;DHT22;90;48.810;9.120;2023-06-14T04:34:59;15.40;62.00
210;DHT22;90;48.810;9.120;2023-06-14T04:37:27;15.40;62.40
210;DHT22;90;48.810;9.120;2023-06-14T04:39:55;15.50;62.40
210;DHT22;90;48.810;9.120;2023-06-14T04:42:24;15.70;62.10
210;DHT22;90;48.810;9.120;2023-06-14T04:44:55;15.70;61.60
210;DHT22;90;48.810;9.120;2023-06-14T04:47:22;15.70;61.60
210;DHT22;90;48.810;9.120;2023-06-14T04:49:51;15.70;61.80
210;DHT22;90;48.810;9.120;2023-06-14T04:52:19;15.70;63.00
210;DHT22;90;48.810;9.120;2023-06-14T04:54:46;15.90;62.70
210;DHT22;90;48.810;9.120;2023-06-14T04:57:13;16.10;61.70
210;DHT22;90;48.810;9.120;2023-06-14T04:59:42;16.30;60.20
210;DHT22;90;48.810;9.120;2023-06-14T05:02:09;16.40;59.30
210;DHT22;90;48.810;9.120;2023-06-14T05:04:37;16.60;58.60
210;DHT22;90;48.810;9.120;2023-06-14T05:07:08;16.60;59.00
210;DHT22;90;48.810;9.120;2023-06-14T05:09:36;16.70;58.50
210;DHT22;90;48.810;9.120;2023-06-14T05:12:03;16.80;58.00
210;DHT22;90;48.810;9.120;2023-06-14T05:14:30;16.90;57.80
210;DHT22;90;48.810;9.120;2023-06-14T05:16:57;17.10;56.60
210;DHT22;90;48.810;9.120;2023-06-14T05:19:23;17.20;56.20
210;DHT22;90;48.810;9.120;2023-06-14T05:21:50;17.40;56.10
210;DHT22;90;48.810;9.120;2023-06-14T05:24:20;17.50;56.40
210;DHT22;90;48.810;9.120;2023-06-14T05:26:47;18.00;62.10
210;DHT22;90;48.810;9.120;2023-06-14T05:29:14;18.70;59.70
210;DHT22;90;48.810;9.120;2023-06-14T05:31:41;19.30;57.70
210;DHT22;90;48.810;9.120;2023-06-14T05:34:07;19.90;54.70
210;DHT22;90;48.810;9.120;2023-06-14T05:36:35;20.30;53.40
210;DHT22;90;48.810;9.120;2023-06-14T05:39:02;20.60;51.60
210;DHT22;90;48.810;9.120;2023-06-14T05:41:31;20.60;50.30
210;DHT22;90;48.810;9.120;2023-06-14T05:43:59;20.70;50.30
210;DHT22;90;48.810;9.120;2023-06-14T05:46:26;20.90;50.40
210;DHT22;90;48.810;9.120;2023-06-14T05:48:54;21.00;49.80
210;DHT22;90;48.810;9.120;2023-06-14T05:51:22;21.10;49.30
210;DHT22;90;48.810;9.120;2023-06-14T05:53:50;21.20;49.10
210;DHT22;90;48.810;9.120;2023-06-14T05:56:17;21.20;48.40
210;DHT22;90;48.810;9.120;2023-06-14T05:58:46;21.00;48.60
210;DHT22;90;48.810;9.120;2023-06-14T06:01:13;20.90;49.10
210;DHT22;90;48.810;9.120;2023-06-14T06:03:39;20.90;48.30
210;DHT22;90;48.810;9.120;2023-06-14T06:06:06;20.80;48.70
210;DHT22;90;48.810;9.120;2023-06-14T06:08:33;20.80;48.20
210;DHT22;90;48.810;9.120;2023-06-14T06:11:00;20.60;49.10
210;DHT22;90;48.810;9.120;2023-06-14T06:13:27;20.80;49.50
210;DHT22;90;48.810;9.120;2023-06-14T06:15:55;21.00;49.30
210;DHT22;90;48.810;9.120;2023-06-14T06:18:22;21.20;49.00
210;DHT22;90;48.810;9.120;2023-06-14T06:20:48;21.30;48.30
210;DHT22;90;48.810;9.120;2023-06-14T06:23:15;21.40;48.40
210;DHT22;90;48.810;9.120;2023-06-14T06:25:42;21.50;48.00
210;DHT22;90;48.810;9.120;2023-06-14T06:28:09;21.70;47.20
210;DHT22;90;48.810;9.120;2023-06-14T06:30:36;21.70;47.50
210;DHT22;90;48.810;9.120;2023-06-14T06:33:04;21.80;47.40
210;DHT22;90;48.810;9.120;2023-06-14T06:35:31;21.90;47.40
210;DHT22;90;48.810;9.120;2023-06-14T06:37:58;22.00;47.20
210;DHT22;90;48.810;9.120;2023-06-14T06:40:25;22.00;47.10
210;DHT22;90;48.810;9.120;2023-06-14T06:42:52;22.00;47.10
210;DHT22;90;48.810;9.120;2023-06-14T06:45:18;22.10;47.00
210;DHT22;90;48.810;9.120;2023-06-14T06:47:45;22.20;46.90
210;DHT22;90;48.810;9.120;2023-06-14T06:50:13;22.20;47.00
210;DHT22;90;48.810;9.120;2023-06-14T06:52:40;22.20;47.10
210;DHT22;90;48.810;9.120;2023-06-14T06:55:07;22.20;47.10
210;DHT22;90;48.810;9.120;2023-06-14T06:57:36;22.30;46.90
210;DHT22;90;48.810;9.120;2023-06-14T07:00:04;22.30;47.20
210;DHT22;90;48.810;9.120;2023-06-14T07:02:33;22.30;47.40
210;DHT22;90;48.810;9.120;2023-06-14T07:05:00;22.30;47.30
210;DHT22;90;48.810;9.120;2023-06-14T07:07:28;22.30;46.90
210;DHT22;90;48.810;9.120;2023-06-14T07:09:55;22.10;47.00
210;DHT22;90;48.810;9.120;2023-06-14T07:12:23;21.90;47.70
210;DHT22;90;48.810;9.120;2023-06-14T07:14:50;21.60;47.70
210;DHT22;90;48.810;9.120;2023-06-14T07:17:17;21.40;48.30
210;DHT22;90;48.810;9.120;2023-06-14T07:19:44;21.20;48.90
210;DHT22;90;48.810;9.120;2023-06-14T07:22:11;21.00;48.10
210;DHT22;90;48.810;9.120;2023-06-14T07:24:39;20.80;47.60
210;DHT22;90;48.810;9.120;2023-06-14T07:27:07;20.80;47.50
210;DHT22;90;48.810;9.120;2023-06-14T07:29:34;20.80;47.40
210;DHT22;90;48.810;9.120;2023-06-14T07:32:01;20.80;47.70
210;DHT22;90;48.810;9.120;2023-06-14T07:34:28;20.90;47.80
210;DHT22;90;48.810;9.120;2023-06-14T07:36:55;20.90;48.50
210;DHT22;90;48.810;9.120;2023-06-14T07:39:21;20.90;47.80
210;DHT22;90;48.810;9.120;2023-06-14T07:41:50;20.90;47.70
210;DHT22;90;48.810;9.120;2023-06-14T07:44:17;21.00;47.80
210;DHT22;90;48.810;9.120;2023-06-14T07:46:43;21.00;48.40
210;DHT22;90;48.810;9.120;2023-06-14T07:49:11;21.10;48.60
210;DHT22;90;48.810;9.120;2023-06-14T07:51:38;21.00;47.30
210;DHT22;90;48.810;9.120;2023-06-14T07:54:05;20.80;47.20
210;DHT22;90;48.810;9.120;2023-06-14T07:56:32;20.70;47.30
210;DHT22;90;48.810;9.120;2023-06-14T07:59:01;20.80;47.50
210;DHT22;90;48.810;9.120;2023-06-14T08:01:28;20.80;47.80
210;DHT22;90;48.810;9.120;2023-06-14T08:03:54;20.80;48.10
210;DHT22;90;48.810;9.120;2023-06-14T08:06:21;20.70;47.80
210;DHT22;90;48.810;9.120;2023-06-14T08:08:48;20.80;48.80
210;DHT22;90;48.810;9.120;2023-06-14T08:11:14;21.00;47.90
210;DHT22;90;48.810;9.120;2023-06-14T08:13:41;21.00;47.50
210;DHT22;90;48.810;9.120;2023-06-14T08:16:09;20.80;48.10
210;DHT22;90;48.810;9.120;2023-06-14T08:18:36;20.90;48.60
210;DHT22;90;48.810;9.120;2023-06-14T08:21:03;21.10;48.10
210;DHT22;90;48.810;9.120;2023-06-14T08:23:30;21.10;48.40
210;DHT22;90;48.810;9.120;2023-06-14T08:25:56;21.20;47.70
210;DHT22;90;48.810;9.120;2023-06-14T08:28:24;21.30;48.10
210;DHT22;90;48.810;9.120;2023-06-14T08:30:51;21.30;47.50
210;DHT22;90;48.810;9.120;2023-06-14T08:33:19;21.40;48.30
210;DHT22;90;48.810;9.120;2023-06-14T08:35:45;21.20;47.50
210;DHT22;90;48.810;9.120;2023-06-14T08:38:12;21.40;47.80
210;DHT22;90;48.810;9.120;2023-06-14T08:40:40;21.50;47.70
210;DHT22;90;48.810;9.120;2023-06-14T08:43:07;21.50;47.50
210;DHT22;90;48.810;9.120;2023-06-14T08:45:34;21.70;48.10
210;DHT22;90;48.810;9.120;2023-06-14T08:48:01;21.60;47.60
210;DHT22;90;48.810;9.120;2023-06-14T08:50:30;21.60;47.30
210;DHT22;90;48.810;9.120;2023-06-14T08:53:01;21.70;48.00
210;DHT22;90;48.810;9.120;2023-06-14T08:55:28;21.80;48.20
210;DHT22;90;48.810;9.120;2023-06-14T08:57:56;21.80;47.80
210;DHT22;90;48.810;9.120;2023-06-14T09:00:24;21.90;47.40
210;DHT22;90;48.810;9.120;2023-06-14T09:02:52;21.90;47.00
210;DHT22;90;48.810;9.120;2023-06-14T09:05:23;21.90;47.20
210;DHT22;90;48.810;9.120;2023-06-14T09:07:51;21.90;47.20
210;DHT22;90;48.810;9.120;2023-06-14T09:10:21;22.00;47.60
210;DHT22;90;48.810;9.120;2023-06-14T09:12:48;22.10;48.70
210;DHT22;90;48.810;9.120;2023-06-14T09:15:14;22.10;46.70
210;DHT22;90;48.810;9.120;2023-06-14T09:17:43;22.10;46.70
210;DHT22;90;48.810;9.120;2023-06-14T09:20:10;22.20;46.90
210;DHT22;90;48.810;9.120;2023-06-14T09:22:39;22.20;47.50
210;DHT22;90;48.810;9.120;2023-06-14T09:25:09;22.10;47.00
210;DHT22;90;48.810;9.120;2023-06-14T09:27:37;22.10;47.40
210;DHT22;90;48.810;9.120;2023-06-14T09:30:08;22.20;46.40
210;DHT22;90;48.810;9.120;2023-06-14T09:32:37;22.00;46.50
210;DHT22;90;48.810;9.120;2023-06-14T09:35:04;22.10;46.10
210;DHT22;90;48.810;9.120;2023-06-14T09:37:32;22.10;45.40
210;DHT22;90;48.810;9.120;2023-06-14T09:39:59;22.00;45.50
210;DHT22;90;48.810;9.120;2023-06-14T09:42:27;21.80;46.10
210;DHT22;90;48.810;9.120;2023-06-14T09:44:56;21.90;46.70
210;DHT22;90;48.810;9.120;2023-06-14T09:47:24;22.10;47.90
210;DHT22;90;48.810;9.120;2023-06-14T09:49:51;22.30;47.80
210;DHT22;90;48.810;9.120;2023-06-14T09:52:20;22.40;45.10
210;DHT22;90;48.810;9.120;2023-06-14T09:54:48;22.40;44.80
210;DHT22;90;48.810;9.120;2023-06-14T09:57:16;22.40;46.10
210;DHT22;90;48.810;9.120;2023-06-14T09:59:46;22.60;46.00
210;DHT22;90;48.810;9.120;2023-06-14T10:02:21;22.70;45.40
210;DHT22;90;48.810;9.120;2023-06-14T10:04:53;22.60;45.20
210;DHT22;90;48.810;9.120;2023-06-14T10:07:23;22.60;44.50
210;DHT22;90;48.810;9.120;2023-06-14T10:09:52;22.70;44.20
210;DHT22;90;48.810;9.120;2023-06-14T10:12:19;22.90;42.40
210;DHT22;90;48.810;9.120;2023-06-14T10:14:50;23.10;42.80
210;DHT22;90;48.810;9.120;2023-06-14T10:17:26;23.20;43.60
210;DHT22;90;48.810;9.120;2023-06-14T10:19:58;23.30;41.60
210;DHT22;90;48.810;9.120;2023-06-14T10:22:34;23.10;41.30
210;DHT22;90;48.810;9.120;2023-06-14T10:25:02;23.00;41.10
210;DHT22;90;48.810;9.120;2023-06-14T10:27:33;23.10;40.00
210;DHT22;90;48.810;9.120;2023-06-14T10:30:06;23.20;37.30
210;DHT22;90;48.810;9.120;2023-06-14T10:32:33;23.40;39.30
210;DHT22;90;48.810;9.120;2023-06-14T10:35:01;23.40;39.00
210;DHT22;90;48.810;9.120;2023-06-14T10:37:28;23.40;40.90
210;DHT22;90;48.810;9.120;2023-06-14T10:39:55;23.20;40.80
210;DHT22;90;48.810;9.120;2023-06-14T10:42:23;22.90;41.40
210;DHT22;90;48.810;9.120;2023-06-14T10:44:54;22.90;41.20
210;DHT22;90;48.810;9.120;2023-06-14T10:47:25;23.00;38.70
210;DHT22;90;48.810;9.120;2023-06-14T10:49:53;23.00;38.60
210;DHT22;90;48.810;9.120;2023-06-14T10:52:22;23.00;40.00
210;DHT22;90;48.810;9.120;2023-06-14T10:55:00;22.90;40.20
210;DHT22;90;48.810;9.120;2023-06-14T10:57:27;22.80;41.30
210;DHT22;90;48.810;9.120;2023-06-14T10:59:54;22.80;41.60
210;DHT22;90;48.810;9.120;2023-06-14T11:02:48;22.90;42.80
210;DHT22;90;48.810;9.120;2023-06-14T11:05:23;23.00;41.30
210;DHT22;90;48.810;9.120;2023-06-14T11:07:58;23.00;40.60
210;DHT22;90;48.810;9.120;2023-06-14T11:10:36;23.10;41.20
210;DHT22;90;48.810;9.120;2023-06-14T11:13:03;23.30;40.70
210;DHT22;90;48.810;9.120;2023-06-14T11:15:30;23.40;40.70
210;DHT22;90;48.810;9.120;2023-06-14T11:18:01;23.50;40.80
210;DHT22;90;48.810;9.120;2023-06-14T11:20:30;23.50;39.90
210;DHT22;90;48.810;9.120;2023-06-14T11:22:57;23.30;39.70
210;DHT22;90;48.810;9.120;2023-06-14T11:25:25;23.20;40.80
210;DHT22;90;48.810;9.120;2023-06-14T11:27:53;23.40;39.10
210;DHT22;90;48.810;9.120;2023-06-14T11:30:20;23.50;38.90
210;DHT22;90;48.810;9.120;2023-06-14T11:32:48;23.40;38.10
210;DHT22;90;48.810;9.120;2023-06-14T11:35:17;23.40;40.40
210;DHT22;90;48.810;9.120;2023-06-14T11:37:44;23.30;38.30
210;DHT22;90;48.810;9.120;2023-06-14T11:40:12;23.30;38.50
210;DHT22;90;48.810;9.120;2023-06-14T11:42:40;23.50;38.70
210;DHT22;90;48.810;9.120;2023-06-14T11:45:09;23.70;37.90
210;DHT22;90;48.810;9.120;2023-06-14T11:47:37;23.80;37.00
210;DHT22;90;48.810;9.120;2023-06-14T11:50:05;23.90;37.60
210;DHT22;90;48.810;9.120;2023-06-14T11:52:36;24.00;37.80
210;DHT22;90;48.810;9.120;2023-06-14T11:55:03;24.00;37.90
210;DHT22;90;48.810;9.120;2023-06-14T11:57:34;24.00;38.90
210;DHT22;90;48.810;9.120;2023-06-14T12:00:03;24.00;38.20
210;DHT22;90;48.810;9.120;2023-06-14T12:02:32;24.00;37.60
210;DHT22;90;48.810;9.120;2023-06-14T12:05:05;24.20;38.10
210;DHT22;90;48.810;9.120;2023-06-14T12:07:34;24.40;37.90
210;DHT22;90;48.810;9.120;2023-06-14T12:10:05;24.40;38.10
210;DHT22;90;48.810;9.120;2023-06-14T12:12:35;24.60;37.60
210;DHT22;90;48.810;9.120;2023-06-14T12:15:03;24.80;36.80
210;DHT22;90;48.810;9.120;2023-06-14T12:17:32;24.70;36.70
210;DHT22;90;48.810;9.120;2023-06-14T12:20:03;24.70;36.50
210;DHT22;90;48.810;9.120;2023-06-14T12:22:34;24.70;37.20
210;DHT22;90;48.810;9.120;2023-06-14T12:25:01;24.50;36.90
210;DHT22;90;48.810;9.120;2023-06-14T12:27:28;24.60;37.70
210;DHT22;90;48.810;9.120;2023-06-14T12:30:00;24.70;36.70
210;DHT22;90;48.810;9.120;2023-06-14T12:32:27;24.80;36.60
210;DHT22;90;48.810;9.120;2023-06-14T12:34:54;24.90;36.30
210;DHT22;90;48.810;9.120;2023-06-14T12:37:20;25.00;37.30
210;DHT22;90;48.810;9.120;2023-06-14T12:39:49;25.10;36.60
210;DHT22;90;48.810;9.120;2023-06-14T12:42:16;25.10;36.50
210;DHT22;90;48.810;9.120;2023-06-14T12:44:43;25.00;36.30
210;DHT22;90;48.810;9.120;2023-06-14T12:47:10;25.10;38.10
210;DHT22;90;48.810;9.120;2023-06-14T12:49:39;25.20;36.40
210;DHT22;90;48.810;9.120;2023-06-14T12:52:07;25.30;36.50
210;DHT22;90;48.810;9.120;2023-06-14T12:54:34;25.30;36.40
210;DHT22;90;48.810;9.120;2023-06-14T12:57:03;25.40;35.60
210;DHT22;90;48.810;9.120;2023-06-14T12:59:30;25.50;35.60
210;DHT22;90;48.810;9.120;2023-06-14T13:02:00;25.60;35.90
210;DHT22;90;48.810;9.120;2023-06-14T13:04:36;25.60;35.60
210;DHT22;90;48.810;9.120;2023-06-14T13:07:03;25.60;35.40
210;DHT22;90;48.810;9.120;2023-06-14T13:09:30;25.70;35.70
210;DHT22;90;48.810;9.120;2023-06-14T13:11:56;25.70;35.40
210;DHT22;90;48.810;9.120;2023-06-14T13:14:24;25.80;35.00
210;DHT22;90;48.810;9.120;2023-06-14T13:16:52;25.70;36.00
210;DHT22;90;48.810;9.120;2023-06-14T13:19:18;25.60;35.90
210;DHT22;90;48.810;9.120;2023-06-14T13:21:45;25.60;36.30
210;DHT22;90;48.810;9.120;2023-06-14T13:24:12;25.60;36.20
210;DHT22;90;48.810;9.120;2023-06-14T13:26:39;25.60;36.80
210;DHT22;90;48.810;9.120;2023-06-14T13:29:05;25.80;36.50
210;DHT22;90;48.810;9.120;2023-06-14T13:31:33;25.90;35.80
210;DHT22;90;48.810;9.120;2023-06-14T13:34:00;25.90;35.70
210;DHT22;90;48.810;9.120;2023-06-14T13:36:27;25.70;36.50
210;DHT22;90;48.810;9.120;2023-06-14T13:38:55;25.50;37.00
210;DHT22;90;48.810;9.120;2023-06-14T13:41:25;25.20;37.10
210;DHT22;90;48.810;9.120;2023-06-14T13:43:57;25.20;37.10
210;DHT22;90;48.810;9.120;2023-06-14T13:46:24;25.50;37.30
210;DHT22;90;48.810;9.120;2023-06-14T13:48:52;25.50;35.80
210;DHT22;90;48.810;9.120;2023-06-14T13:51:19;25.70;36.20
210;DHT22;90;48.810;9.120;2023-06-14T13:53:48;25.90;36.10
210;DHT22;90;48.810;9.120;2023-06-14T13:56:16;26.00;36.20
210;DHT22;90;48.810;9.120;2023-06-14T13:58:43;26.10;37.90
210;DHT22;90;48.810;9.120;2023-06-14T14:01:10;26.10;35.90
210;DHT22;90;48.810;9.120;2023-06-14T14:03:38;26.20;36.40
210;DHT22;90;48.810;9.120;2023-06-14T14:06:06;26.10;34.80
210;DHT22;90;48.810;9.120;2023-06-14T14:08:34;26.10;36.20
210;DHT22;90;48.810;9.120;2023-06-14T14:11:01;26.20;36.30
210;DHT22;90;48.810;9.120;2023-06-14T14:13:29;26.30;36.20
210;DHT22;90;48.810;9.120;2023-06-14T14:15:55;26.20;35.60
210;DHT22;90;48.810;9.120;2023-06-14T14:18:23;25.80;35.50
210;DHT22;90;48.810;9.120;2023-06-14T14:20:50;25.90;36.20
210;DHT22;90;48.810;9.120;2023-06-14T14:23:17;26.00;36.90
210;DHT22;90;48.810;9.120;2023-06-14T14:25:45;26.30;35.90
210;DHT22;90;48.810;9.120;2023-06-14T14:28:12;26.50;35.90
210;DHT22;90;48.810;9.120;2023-06-14T14:30:41;26.50;35.40
210;DHT22;90;48.810;9.120;2023-06-14T14:33:08;26.60;35.30
210;DHT22;90;48.810;9.120;2023-06-14T14:35:36;26.60;36.00
210;DHT22;90;48.810;9.120;2023-06-14T14:38:03;26.70;35.40
210;DHT22;90;48.810;9.120;2023-06-14T14:40:31;26.80;34.20
210;DHT22;90;48.810;9.120;2023-06-14T14:42:58;26.70;34.40
210;DHT22;90;48.810;9.120;2023-06-14T14:45:25;26.60;35.40
210;DHT22;90;48.810;9.120;2023-06-14T14:47:51;26.90;36.90
210;DHT22;90;48.810;9.120;2023-06-14T14:50:18;27.10;34.30
210;DHT22;90;48.810;9.120;2023-06-14T14:52:45;27.10;34.40
210;DHT22;90;48.810;9.120;2023-06-14T14:55:12;26.90;34.50
210;DHT22;90;48.810;9.120;2023-06-14T14:57:40;26.70;34.90
210;DHT22;90;48.810;9.120;2023-06-14T15:00:07;26.40;35.00
210;DHT22;90;48.810;9.120;2023-06-14T15:02:34;26.00;36.00
210;DHT22;90;48.810;9.120;2023-06-14T15:05:01;25.80;36.40
210;DHT22;90;48.810;9.120;2023-06-14T15:07:28;25.80;36.20
210;DHT22;90;48.810;9.120;2023-06-14T15:09:55;26.00;36.00
210;DHT22;90;48.810;9.120;2023-06-14T15:12:21;26.20;36.30
210;DHT22;90;48.810;9.120;2023-06-14T15:14:50;26.50;36.10
210;DHT22;90;48.810;9.120;2023-06-14T15:17:17;26.60;35.50
210;DHT22;90;48.810;9.120;2023-06-14T15:19:44;26.80;36.10
210;DHT22;90;48.810;9.120;2023-06-14T15:22:11;26.80;35.00
210;DHT22;90;48.810;9.120;2023-06-14T15:24:37;26.90;34.90
210;DHT22;90;48.810;9.120;2023-06-14T15:27:05;26.90;34.30
210;DHT22;90;48.810;9.120;2023-06-14T15:29:32;26.90;34.60
210;DHT22;90;48.810;9.120;2023-06-14T15:32:01;26.90;34.60
210;DHT22;90;48.810;9.120;2023-06-14T15:34:27;27.10;34.70
210;DHT22;90;48.810;9.120;2023-06-14T15:36:54;27.20;35.30
210;DHT22;90;48.810;9.120;2023-06-14T15:39:21;27.00;34.80
210;DHT22;90;48.810;9.120;2023-06-14T15:41:48;27.00;35.00
210;DHT22;90;48.810;9.120;2023-06-14T15:44:16;27.10;35.40
210;DHT22;90;48.810;9.120;2023-06-14T15:46:43;27.10;34.70
210;DHT22;90;48.810;9.120;2023-06-14T15:49:12;27.20;36.10
210;DHT22;90;48.810;9.120;2023-06-14T15:51:39;27.50;36.20
210;DHT22;90;48.810;9.120;2023-06-14T15:54:06;27.50;35.60
210;DHT22;90;48.810;9.120;2023-06-14T15:56:33;27.50;33.70
210;DHT22;90;48.810;9.120;2023-06-14T15:59:00;27.50;33.60
210;DHT22;90;48.810;9.120;2023-06-14T16:01:26;27.30;35.30
210;DHT22;90;48.810;9.120;2023-06-14T16:03:53;27.20;36.40
210;DHT22;90;48.810;9.120;2023-06-14T16:06:23;27.20;34.20
210;DHT22;90;48.810;9.120;2023-06-14T16:08:49;27.10;34.60
210;DHT22;90;48.810;9.120;2023-06-14T16:11:17;27.10;35.40
210;DHT22;90;48.810;9.120;2023-06-14T16:13:45;27.30;34.90
210;DHT22;90;48.810;9.120;2023-06-14T16:16:12;27.40;34.60
210;DHT22;90;48.810;9.120;2023-06-14T16:18:39;27.40;34.20
210;DHT22;90;48.810;9.120;2023-06-14T16:21:06;27.30;34.10
210;DHT22;90;48.810;9.120;2023-06-14T16:23:35;27.30;35.10
210;DHT22;90;48.810;9.120;2023-06-14T16:26:02;27.20;34.30
210;DHT22;90;48.810;9.120;2023-06-14T16:28:30;27.30;35.00
210;DHT22;90;48.810;9.120;2023-06-14T16:30:56;27.50;34.30
210;DHT22;90;48.810;9.120;2023-06-14T16:33:23;27.40;33.70
210;DHT22;90;48.810;9.120;2023-06-14T16:35:50;27.40;33.70
210;DHT22;90;48.810;9.120;2023-06-14T16:38:17;27.50;33.70
210;DHT22;90;48.810;9.120;2023-06-14T16:40:47;27.60;34.70
210;DHT22;90;48.810;9.120;2023-06-14T16:43:14;27.80;34.90
210;DHT22;90;48.810;9.120;2023-06-14T16:45:42;27.90;34.00
210;DHT22;90;48.810;9.120;2023-06-14T16:48:08;27.80;34.40
210;DHT22;90;48.810;9.120;2023-06-14T16:50:35;28.00;33.30
210;DHT22;90;48.810;9.120;2023-06-14T16:53:02;27.90;33.20
210;DHT22;90;48.810;9.120;2023-06-14T16:55:29;27.70;34.10
210;DHT22;90;48.810;9.120;2023-06-14T16:57:58;27.60;34.80